sensor_id;sensor_type;location;lat;lon;timestamp;P1;durP1;ratioP1;P2;durP2;ratioP2
2976;SDS011;1498;51.500;7.440;2023-02-01T00:02:12;26.80;;;12.77;;
2976;SDS011;1498;51.500;7.440;2023-02-01T00:04:37;18.07;;;9.90;;
2976;SDS011;1498;51.500;7.440;2023-02-01T00:07:03;19.80;;;10.97;;
2976;SDS011;1498;51.500;7.440;2023-02-01T00:09:28;25.77;;;11.70;;
2976;SDS011;1498;51.500;7.440;2023-02-01T00:11:54;19.90;;;12.60;;
2976;SDS011;1498;51.500;7.440;2023-02-01T00:14:20;19.13;;;11.13;;
2976;SDS011;1498;51.500;7.440;2023-02-01T00:16:45;19.20;;;11.23;;
2976;SDS011;1498;51.500;7.440;2023-02-01T00:19:12;28.63;;;12.27;;
2976;SDS011;1498;51.500;7.440;2023-02-01T00:21:39;19.80;;;10.43;;
2976;SDS011;1498;51.500;7.440;2023-02-01T00:24:05;20.43;;;9.50;;
2976;SDS011;1498;51.500;7.440;2023-02-01T00:29:01;24.00;;;9.50;;
2976;SDS011;1498;51.500;7.440;2023-02-01T00:31:29;20.73;;;10.23;;
2976;SDS011;1498;51.500;7.440;2023-02-01T00:33:55;28.77;;;13.63;;
2976;SDS011;1498;51.500;7.440;2023-02-01T00:36:20;19.20;;;8.13;;
2976;SDS011;1498;51.500;7.440;2023-02-01T00:38:46;20.37;;;9.20;;
2976;SDS011;1498;51.500;7.440;2023-02-01T00:41:18;14.70;;;8.23;;
2976;SDS011;1498;51.500;7.440;2023-02-01T00:43:46;16.33;;;7.43;;
2976;SDS011;1498;51.500;7.440;2023-02-01T00:46:12;18.00;;;7.03;;
2976;SDS011;1498;51.500;7.440;2023-02-01T00:48:40;27.27;;;8.03;;
2976;SDS011;1498;51.500;7.440;2023-02-01T00:51:07;20.53;;;8.27;;
2976;SDS011;1498;51.500;7.440;2023-02-01T00:53:35;18.97;;;7.37;;
2976;SDS011;1498;51.500;7.440;2023-02-01T00:56:01;12.53;;;6.33;;
2976;SDS011;1498;51.500;7.440;2023-02-01T00:58:27;16.50;;;6.23;;
2976;SDS011;1498;51.500;7.440;2023-02-01T01:01:00;14.30;;;6.00;;
2976;SDS011;1498;51.500;7.440;2023-02-01T01:03:25;14.80;;;6.53;;
2976;SDS011;1498;51.500;7.440;2023-02-01T01:05:51;19.13;;;5.73;;
2976;SDS011;1498;51.500;7.440;2023-02-01T01:08:22;17.13;;;5.87;;
2976;SDS011;1498;51.500;7.440;2023-02-01T01:10:48;14.53;;;4.90;;
2976;SDS011;1498;51.500;7.440;2023-02-01T01:13:14;25.53;;;6.47;;
2976;SDS011;1498;51.500;7.440;2023-02-01T01:15:40;19.07;;;5.23;;
2976;SDS011;1498;51.500;7.440;2023-02-01T01:18:06;21.90;;;5.90;;
2976;SDS011;1498;51.500;7.440;2023-02-01T01:20:35;16.40;;;5.50;;
2976;SDS011;1498;51.500;7.440;2023-02-01T01:23:02;16.73;;;5.43;;
2976;SDS011;1498;51.500;7.440;2023-02-01T01:25:28;11.90;;;4.33;;
2976;SDS011;1498;51.500;7.440;2023-02-01T01:27:54;10.97;;;6.83;;
2976;SDS011;1498;51.500;7.440;2023-02-01T01:30:19;15.80;;;5.07;;
2976;SDS011;1498;51.500;7.440;2023-02-01T01:32:45;17.93;;;4.97;;
2976;SDS011;1498;51.500;7.440;2023-02-01T01:35:11;17.97;;;5.63;;
2976;SDS011;1498;51.500;7.440;2023-02-01T01:37:36;21.67;;;5.80;;
2976;SDS011;1498;51.500;7.440;2023-02-01T01:40:03;15.70;;;5.17;;
2976;SDS011;1498;51.500;7.440;2023-02-01T01:42:30;18.77;;;7.70;;
2976;SDS011;1498;51.500;7.440;2023-02-01T01:47:46;11.33;;;4.37;;
2976;SDS011;1498;51.500;7.440;2023-02-01T01:50:16;12.30;;;5.70;;
2976;SDS011;1498;51.500;7.440;2023-02-01T01:52:46;17.80;;;5.00;;
2976;SDS011;1498;51.500;7.440;2023-02-01T01:55:15;30.17;;;6.30;;
2976;SDS011;1498;51.500;7.440;2023-02-01T01:57:46;10.00;;;4.83;;
2976;SDS011;1498;51.500;7.440;2023-02-01T02:00:17;17.70;;;5.40;;
2976;SDS011;1498;51.500;7.440;2023-02-01T02:02:46;14.10;;;5.60;;
2976;SDS011;1498;51.500;7.440;2023-02-01T02:05:15;16.67;;;5.17;;
2976;SDS011;1498;51.500;7.440;2023-02-01T02:07:43;16.40;;;5.00;;
2976;SDS011;1498;51.500;7.440;2023-02-01T02:10:12;12.40;;;5.57;;
2976;SDS011;1498;51.500;7.440;2023-02-01T02:12:39;15.87;;;5.23;;
2976;SDS011;1498;51.500;7.440;2023-02-01T02:15:07;10.70;;;4.77;;
2976;SDS011;1498;51.500;7.440;2023-02-01T02:20:54;9.63;;;4.80;;
2976;SDS011;1498;51.500;7.440;2023-02-01T02:32:43;13.07;;;5.80;;
2976;SDS011;1498;51.500;7.440;2023-02-01T02:38:17;16.53;;;6.20;;
2976;SDS011;1498;51.500;7.440;2023-02-01T02:43:32;13.93;;;5.87;;
2976;SDS011;1498;51.500;7.440;2023-02-01T02:46:28;18.63;;;6.60;;
2976;SDS011;1498;51.500;7.440;2023-02-01T02:52:11;20.57;;;5.70;;
2976;SDS011;1498;51.500;7.440;2023-02-01T02:54:59;11.53;;;4.23;;
2976;SDS011;1498;51.500;7.440;2023-02-01T03:00:22;20.60;;;5.60;;
2976;SDS011;1498;51.500;7.440;2023-02-01T03:03:08;12.70;;;5.80;;
2976;SDS011;1498;51.500;7.440;2023-02-01T03:05:52;15.60;;;4.40;;
2976;SDS011;1498;51.500;7.440;2023-02-01T03:08:21;17.30;;;6.40;;
2976;SDS011;1498;51.500;7.440;2023-02-01T03:16:31;16.67;;;5.23;;
2976;SDS011;1498;51.500;7.440;2023-02-01T03:19:11;10.83;;;4.73;;
2976;SDS011;1498;51.500;7.440;2023-02-01T03:21:47;15.47;;;5.10;;
2976;SDS011;1498;51.500;7.440;2023-02-01T03:24:16;8.73;;;4.17;;
2976;SDS011;1498;51.500;7.440;2023-02-01T03:26:47;10.87;;;4.33;;
2976;SDS011;1498;51.500;7.440;2023-02-01T03:30:04;18.93;;;3.80;;
2976;SDS011;1498;51.500;7.440;2023-02-01T03:32:09;8.27;;;4.63;;
2976;SDS011;1498;51.500;7.440;2023-02-01T03:34:34;15.77;;;4.17;;
2976;SDS011;1498;51.500;7.440;2023-02-01T03:37:04;10.67;;;4.27;;
2976;SDS011;1498;51.500;7.440;2023-02-01T05:33:00;20.73;;;4.40;;
2976;SDS011;1498;51.500;7.440;2023-02-01T05:35:26;13.87;;;6.00;;
2976;SDS011;1498;51.500;7.440;2023-02-01T05:37:52;27.80;;;4.30;;
2976;SDS011;1498;51.500;7.440;2023-02-01T05:40:17;17.60;;;5.83;;
2976;SDS011;1498;51.500;7.440;2023-02-01T05:42:43;15.30;;;4.50;;
2976;SDS011;1498;51.500;7.440;2023-02-01T05:45:09;16.87;;;4.50;;
2976;SDS011;1498;51.500;7.440;2023-02-01T05:47:35;18.60;;;5.87;;
2976;SDS011;1498;51.500;7.440;2023-02-01T05:50:01;10.37;;;4.80;;
2976;SDS011;1498;51.500;7.440;2023-02-01T05:52:27;12.57;;;4.30;;
2976;SDS011;1498;51.500;7.440;2023-02-01T05:54:52;13.77;;;5.03;;
2976;SDS011;1498;51.500;7.440;2023-02-01T05:57:18;21.10;;;5.20;;
2976;SDS011;1498;51.500;7.440;2023-02-01T05:59:44;12.57;;;4.67;;
2976;SDS011;1498;51.500;7.440;2023-02-01T06:02:11;13.63;;;3.87;;
2976;SDS011;1498;51.500;7.440;2023-02-01T06:04:36;13.07;;;3.70;;
2976;SDS011;1498;51.500;7.440;2023-02-01T06:07:02;18.33;;;5.10;;
2976;SDS011;1498;51.500;7.440;2023-02-01T06:09:28;18.33;;;4.53;;
2976;SDS011;1498;51.500;7.440;2023-02-01T06:11:54;17.00;;;4.70;;
2976;SDS011;1498;51.500;7.440;2023-02-01T06:14:20;15.47;;;3.50;;
2976;SDS011;1498;51.500;7.440;2023-02-01T06:16:45;26.57;;;4.83;;
2976;SDS011;1498;51.500;7.440;2023-02-01T06:19:12;21.90;;;4.73;;
2976;SDS011;1498;51.500;7.440;2023-02-01T06:21:38;19.10;;;4.03;;
2976;SDS011;1498;51.500;7.440;2023-02-01T06:24:03;20.10;;;4.83;;
2976;SDS011;1498;51.500;7.440;2023-02-01T06:26:29;17.20;;;5.00;;
2976;SDS011;1498;51.500;7.440;2023-02-01T06:28:55;22.63;;;5.00;;
2976;SDS011;1498;51.500;7.440;2023-02-01T06:31:21;16.23;;;4.33;;
2976;SDS011;1498;51.500;7.440;2023-02-01T06:33:49;13.67;;;4.83;;
2976;SDS011;1498;51.500;7.440;2023-02-01T06:36:15;18.47;;;4.40;;
2976;SDS011;1498;51.500;7.440;2023-02-01T06:38:42;19.83;;;4.93;;
2976;SDS011;1498;51.500;7.440;2023-02-01T06:41:08;19.73;;;4.77;;
2976;SDS011;1498;51.500;7.440;2023-02-01T06:43:34;23.83;;;5.40;;
2976;SDS011;1498;51.500;7.440;2023-02-01T06:46:01;16.10;;;6.10;;
2976;SDS011;1498;51.500;7.440;2023-02-01T06:48:28;14.60;;;5.60;;
2976;SDS011;1498;51.500;7.440;2023-02-01T06:50:54;29.53;;;5.87;;
2976;SDS011;1498;51.500;7.440;2023-02-01T06:53:19;12.10;;;5.03;;
2976;SDS011;1498;51.500;7.440;2023-02-01T06:55:55;16.87;;;4.60;;
2976;SDS011;1498;51.500;7.440;2023-02-01T06:58:28;20.97;;;4.17;;
2976;SDS011;1498;51.500;7.440;2023-02-01T07:00:56;12.97;;;5.20;;
2976;SDS011;1498;51.500;7.440;2023-02-01T07:03:21;14.93;;;4.90;;
2976;SDS011;1498;51.500;7.440;2023-02-01T07:05:47;17.37;;;4.07;;
2976;SDS011;1498;51.500;7.440;2023-02-01T07:08:12;20.23;;;4.40;;
2976;SDS011;1498;51.500;7.440;2023-02-01T07:10:38;13.57;;;4.17;;
2976;SDS011;1498;51.500;7.440;2023-02-01T07:13:04;16.33;;;3.90;;
2976;SDS011;1498;51.500;7.440;2023-02-01T07:15:30;20.07;;;5.77;;
2976;SDS011;1498;51.500;7.440;2023-02-01T07:17:55;26.63;;;6.10;;
2976;SDS011;1498;51.500;7.440;2023-02-01T07:20:21;15.77;;;5.13;;
2976;SDS011;1498;51.500;7.440;2023-02-01T07:22:47;13.83;;;5.20;;
2976;SDS011;1498;51.500;7.440;2023-02-01T07:25:12;12.67;;;4.50;;
2976;SDS011;1498;51.500;7.440;2023-02-01T07:27:38;19.73;;;5.33;;
2976;SDS011;1498;51.500;7.440;2023-02-01T07:30:04;10.77;;;3.73;;
2976;SDS011;1498;51.500;7.440;2023-02-01T07:32:30;19.40;;;4.43;;
2976;SDS011;1498;51.500;7.440;2023-02-01T07:34:56;14.00;;;5.13;;
2976;SDS011;1498;51.500;7.440;2023-02-01T07:37:22;15.87;;;4.63;;
2976;SDS011;1498;51.500;7.440;2023-02-01T07:39:49;15.03;;;4.80;;
2976;SDS011;1498;51.500;7.440;2023-02-01T07:42:15;11.63;;;4.53;;
2976;SDS011;1498;51.500;7.440;2023-02-01T07:44:41;19.97;;;5.80;;
2976;SDS011;1498;51.500;7.440;2023-02-01T07:47:07;19.57;;;6.07;;
2976;SDS011;1498;51.500;7.440;2023-02-01T07:49:32;18.40;;;5.80;;
2976;SDS011;1498;51.500;7.440;2023-02-01T07:51:58;17.73;;;4.87;;
2976;SDS011;1498;51.500;7.440;2023-02-01T07:54:23;20.10;;;5.03;;
2976;SDS011;1498;51.500;7.440;2023-02-01T07:56:49;14.63;;;3.93;;
2976;SDS011;1498;51.500;7.440;2023-02-01T07:59:14;23.73;;;5.27;;
2976;SDS011;1498;51.500;7.440;2023-02-01T08:01:40;17.53;;;5.07;;
2976;SDS011;1498;51.500;7.440;2023-02-01T08:04:07;13.70;;;5.27;;
2976;SDS011;1498;51.500;7.440;2023-02-01T08:06:36;17.93;;;6.00;;
2976;SDS011;1498;51.500;7.440;2023-02-01T08:09:02;17.97;;;5.60;;
2976;SDS011;1498;51.500;7.440;2023-02-01T08:11:28;19.73;;;7.13;;
2976;SDS011;1498;51.500;7.440;2023-02-01T08:13:55;18.60;;;4.87;;
2976;SDS011;1498;51.500;7.440;2023-02-01T08:16:20;32.37;;;7.13;;
2976;SDS011;1498;51.500;7.440;2023-02-01T08:18:46;23.27;;;5.50;;
2976;SDS011;1498;51.500;7.440;2023-02-01T08:21:13;16.83;;;5.90;;
2976;SDS011;1498;51.500;7.440;2023-02-01T08:23:44;18.37;;;6.37;;
2976;SDS011;1498;51.500;7.440;2023-02-01T08:26:11;23.40;;;6.40;;
2976;SDS011;1498;51.500;7.440;2023-02-01T08:28:39;16.60;;;6.13;;
2976;SDS011;1498;51.500;7.440;2023-02-01T08:31:07;17.23;;;6.37;;
2976;SDS011;1498;51.500;7.440;2023-02-01T08:33:34;17.43;;;6.73;;
2976;SDS011;1498;51.500;7.440;2023-02-01T08:36:02;19.00;;;6.67;;
2976;SDS011;1498;51.500;7.440;2023-02-01T08:38:29;18.83;;;6.40;;
2976;SDS011;1498;51.500;7.440;2023-02-01T08:40:55;14.90;;;6.17;;
2976;SDS011;1498;51.500;7.440;2023-02-01T08:43:21;19.47;;;7.03;;
2976;SDS011;1498;51.500;7.440;2023-02-01T08:45:47;24.73;;;8.87;;
2976;SDS011;1498;51.500;7.440;2023-02-01T08:48:13;20.20;;;5.90;;
2976;SDS011;1498;51.500;7.440;2023-02-01T08:50:38;24.07;;;10.17;;
2976;SDS011;1498;51.500;7.440;2023-02-01T08:53:04;24.47;;;6.33;;
2976;SDS011;1498;51.500;7.440;2023-02-01T08:55:29;22.03;;;7.40;;
2976;SDS011;1498;51.500;7.440;2023-02-01T08:57:55;11.90;;;5.93;;
2976;SDS011;1498;51.500;7.440;2023-02-01T09:00:21;17.57;;;6.87;;
2976;SDS011;1498;51.500;7.440;2023-02-01T09:02:47;24.50;;;6.63;;
2976;SDS011;1498;51.500;7.440;2023-02-01T09:05:12;17.10;;;5.43;;
2976;SDS011;1498;51.500;7.440;2023-02-01T09:07:39;21.63;;;5.73;;
2976;SDS011;1498;51.500;7.440;2023-02-01T09:10:04;16.97;;;6.13;;
2976;SDS011;1498;51.500;7.440;2023-02-01T09:12:31;24.43;;;6.97;;
2976;SDS011;1498;51.500;7.440;2023-02-01T09:14:58;20.97;;;6.50;;
2976;SDS011;1498;51.500;7.440;2023-02-01T09:17:25;21.90;;;6.23;;
2976;SDS011;1498;51.500;7.440;2023-02-01T09:19:51;14.23;;;5.40;;
2976;SDS011;1498;51.500;7.440;2023-02-01T09:22:16;16.87;;;6.27;;
2976;SDS011;1498;51.500;7.440;2023-02-01T09:24:42;24.20;;;7.73;;
2976;SDS011;1498;51.500;7.440;2023-02-01T09:27:08;16.83;;;6.70;;
2976;SDS011;1498;51.500;7.440;2023-02-01T09:29:33;16.00;;;6.70;;
2976;SDS011;1498;51.500;7.440;2023-02-01T09:31:59;17.10;;;7.30;;
2976;SDS011;1498;51.500;7.440;2023-02-01T09:34:25;25.83;;;7.13;;
2976;SDS011;1498;51.500;7.440;2023-02-01T09:36:50;12.53;;;6.70;;
2976;SDS011;1498;51.500;7.440;2023-02-01T09:39:16;14.27;;;6.40;;
2976;SDS011;1498;51.500;7.440;2023-02-01T09:44:31;22.37;;;7.73;;
2976;SDS011;1498;51.500;7.440;2023-02-01T09:46:58;14.87;;;6.87;;
2976;SDS011;1498;51.500;7.440;2023-02-01T09:49:28;10.17;;;5.80;;
2976;SDS011;1498;51.500;7.440;2023-02-01T09:51:56;20.90;;;6.33;;
2976;SDS011;1498;51.500;7.440;2023-02-01T09:54:25;18.27;;;6.50;;
2976;SDS011;1498;51.500;7.440;2023-02-01T09:56:56;15.27;;;7.40;;
2976;SDS011;1498;51.500;7.440;2023-02-01T09:59:49;17.90;;;6.20;;
2976;SDS011;1498;51.500;7.440;2023-02-01T10:02:23;20.90;;;6.67;;
2976;SDS011;1498;51.500;7.440;2023-02-01T10:04:52;13.27;;;5.87;;
2976;SDS011;1498;51.500;7.440;2023-02-01T10:10:21;14.00;;;5.70;;
2976;SDS011;1498;51.500;7.440;2023-02-01T10:18:56;24.27;;;7.63;;
2976;SDS011;1498;51.500;7.440;2023-02-01T10:21:36;19.63;;;6.10;;
2976;SDS011;1498;51.500;7.440;2023-02-01T10:29:40;16.80;;;6.30;;
2976;SDS011;1498;51.500;7.440;2023-02-01T10:32:17;15.97;;;6.67;;
2976;SDS011;1498;51.500;7.440;2023-02-01T10:34:47;16.10;;;6.67;;
2976;SDS011;1498;51.500;7.440;2023-02-01T10:37:20;13.67;;;5.63;;
2976;SDS011;1498;51.500;7.440;2023-02-01T10:39:57;29.40;;;9.23;;
2976;SDS011;1498;51.500;7.440;2023-02-01T10:42:27;19.50;;;5.90;;
2976;SDS011;1498;51.500;7.440;2023-02-01T10:44:55;9.53;;;5.43;;
2976;SDS011;1498;51.500;7.440;2023-02-01T10:47:23;17.87;;;6.80;;
2976;SDS011;1498;51.500;7.440;2023-02-01T10:52:22;13.37;;;5.97;;
2976;SDS011;1498;51.500;7.440;2023-02-01T10:58:25;15.03;;;5.10;;
2976;SDS011;1498;51.500;7.440;2023-02-01T11:00:57;18.50;;;6.17;;
2976;SDS011;1498;51.500;7.440;2023-02-01T11:03:34;22.10;;;6.30;;
2976;SDS011;1498;51.500;7.440;2023-02-01T11:06:02;20.00;;;6.40;;
2976;SDS011;1498;51.500;7.440;2023-02-01T11:08:50;17.37;;;5.17;;
2976;SDS011;1498;51.500;7.440;2023-02-01T11:11:17;16.87;;;6.30;;
2976;SDS011;1498;51.500;7.440;2023-02-01T11:13:45;15.03;;;5.13;;
2976;SDS011;1498;51.500;7.440;2023-02-01T11:16:23;11.53;;;5.40;;
2976;SDS011;1498;51.500;7.440;2023-02-01T11:19:03;16.67;;;5.00;;
2976;SDS011;1498;51.500;7.440;2023-02-01T11:21:30;23.13;;;5.50;;
2976;SDS011;1498;51.500;7.440;2023-02-01T11:24:00;14.60;;;5.67;;
2976;SDS011;1498;51.500;7.440;2023-02-01T11:26:28;18.47;;;5.27;;
2976;SDS011;1498;51.500;7.440;2023-02-01T11:28:58;17.83;;;5.50;;
2976;SDS011;1498;51.500;7.440;2023-02-01T11:31:29;13.23;;;5.73;;
2976;SDS011;1498;51.500;7.440;2023-02-01T11:33:59;10.13;;;4.93;;
2976;SDS011;1498;51.500;7.440;2023-02-01T11:36:32;20.17;;;6.13;;
2976;SDS011;1498;51.500;7.440;2023-02-01T11:39:07;10.20;;;4.73;;
2976;SDS011;1498;51.500;7.440;2023-02-01T11:41:40;18.70;;;5.33;;
2976;SDS011;1498;51.500;7.440;2023-02-01T11:49:55;11.07;;;4.63;;
2976;SDS011;1498;51.500;7.440;2023-02-01T12:00:37;16.93;;;5.87;;
2976;SDS011;1498;51.500;7.440;2023-02-01T12:03:48;14.37;;;4.77;;
2976;SDS011;1498;51.500;7.440;2023-02-01T12:06:48;14.90;;;5.87;;
2976;SDS011;1498;51.500;7.440;2023-02-01T12:12:35;18.87;;;6.00;;
2976;SDS011;1498;51.500;7.440;2023-02-01T12:18:28;18.73;;;5.30;;
2976;SDS011;1498;51.500;7.440;2023-02-01T12:26:40;10.43;;;4.90;;
2976;SDS011;1498;51.500;7.440;2023-02-01T12:37:37;12.97;;;5.27;;
2976;SDS011;1498;51.500;7.440;2023-02-01T12:43:01;13.80;;;4.93;;
2976;SDS011;1498;51.500;7.440;2023-02-01T12:45:41;17.40;;;5.87;;
2976;SDS011;1498;51.500;7.440;2023-02-01T12:48:22;12.07;;;5.87;;
2976;SDS011;1498;51.500;7.440;2023-02-01T12:51:09;15.00;;;5.87;;
2976;SDS011;1498;51.500;7.440;2023-02-01T12:53:52;13.30;;;6.00;;
2976;SDS011;1498;51.500;7.440;2023-02-01T12:56:23;20.70;;;6.10;;
2976;SDS011;1498;51.500;7.440;2023-02-01T12:58:56;11.97;;;4.73;;
2976;SDS011;1498;51.500;7.440;2023-02-01T13:01:28;20.33;;;6.47;;
2976;SDS011;1498;51.500;7.440;2023-02-01T13:04:05;20.93;;;6.80;;
2976;SDS011;1498;51.500;7.440;2023-02-01T13:06:52;14.97;;;5.17;;
2976;SDS011;1498;51.500;7.440;2023-02-01T13:12:19;13.17;;;4.47;;
2976;SDS011;1498;51.500;7.440;2023-02-01T13:15:11;20.97;;;5.40;;
2976;SDS011;1498;51.500;7.440;2023-02-01T13:17:41;11.73;;;5.03;;
2976;SDS011;1498;51.500;7.440;2023-02-01T13:20:15;16.30;;;4.63;;
2976;SDS011;1498;51.500;7.440;2023-02-01T13:22:57;7.43;;;4.60;;
2976;SDS011;1498;51.500;7.440;2023-02-01T13:25:32;19.10;;;5.07;;
2976;SDS011;1498;51.500;7.440;2023-02-01T13:28:24;18.40;;;5.73;;
2976;SDS011;1498;51.500;7.440;2023-02-01T13:39:00;13.43;;;5.40;;
2976;SDS011;1498;51.500;7.440;2023-02-01T13:41:55;8.53;;;3.57;;
2976;SDS011;1498;51.500;7.440;2023-02-01T13:44:29;12.00;;;4.47;;
2976;SDS011;1498;51.500;7.440;2023-02-01T13:47:22;18.60;;;4.60;;
2976;SDS011;1498;51.500;7.440;2023-02-01T13:49:52;13.20;;;4.20;;
2976;SDS011;1498;51.500;7.440;2023-02-01T13:55:13;14.33;;;4.03;;
2976;SDS011;1498;51.500;7.440;2023-02-01T13:57:46;12.70;;;3.77;;
2976;SDS011;1498;51.500;7.440;2023-02-01T14:00:33;18.77;;;4.00;;
2976;SDS011;1498;51.500;7.440;2023-02-01T14:03:08;16.97;;;4.57;;
2976;SDS011;1498;51.500;7.440;2023-02-01T14:23:46;19.10;;;3.50;;
2976;SDS011;1498;51.500;7.440;2023-02-01T14:26:24;16.00;;;4.57;;
2976;SDS011;1498;51.500;7.440;2023-02-01T14:34:04;12.83;;;4.60;;
2976;SDS011;1498;51.500;7.440;2023-02-01T14:36:56;14.87;;;4.20;;
2976;SDS011;1498;51.500;7.440;2023-02-01T14:39:30;16.80;;;4.10;;
2976;SDS011;1498;51.500;7.440;2023-02-01T14:41:57;9.47;;;3.70;;
2976;SDS011;1498;51.500;7.440;2023-02-01T14:44:27;17.20;;;5.27;;
2976;SDS011;1498;51.500;7.440;2023-02-01T14:47:04;13.50;;;3.77;;
2976;SDS011;1498;51.500;7.440;2023-02-01T14:49:34;13.50;;;4.13;;
2976;SDS011;1498;51.500;7.440;2023-02-01T14:52:33;14.40;;;5.30;;
2976;SDS011;1498;51.500;7.440;2023-02-01T14:55:06;16.50;;;5.17;;
2976;SDS011;1498;51.500;7.440;2023-02-01T14:57:38;15.73;;;6.40;;
2976;SDS011;1498;51.500;7.440;2023-02-01T15:00:14;10.27;;;4.27;;
2976;SDS011;1498;51.500;7.440;2023-02-01T15:02:50;10.33;;;3.90;;
2976;SDS011;1498;51.500;7.440;2023-02-01T15:05:28;20.23;;;4.27;;
2976;SDS011;1498;51.500;7.440;2023-02-01T15:07:56;15.10;;;3.30;;
2976;SDS011;1498;51.500;7.440;2023-02-01T15:10:43;13.03;;;4.67;;
2976;SDS011;1498;51.500;7.440;2023-02-01T15:13:21;15.00;;;3.10;;
2976;SDS011;1498;51.500;7.440;2023-02-01T15:18:37;16.87;;;4.40;;
2976;SDS011;1498;51.500;7.440;2023-02-01T15:21:03;14.30;;;4.40;;
2976;SDS011;1498;51.500;7.440;2023-02-01T15:23:30;15.80;;;4.30;;
2976;SDS011;1498;51.500;7.440;2023-02-01T15:25:57;16.00;;;4.20;;
2976;SDS011;1498;51.500;7.440;2023-02-01T15:28:24;18.63;;;4.70;;
2976;SDS011;1498;51.500;7.440;2023-02-01T15:30:52;13.07;;;3.77;;
2976;SDS011;1498;51.500;7.440;2023-02-01T15:33:25;9.47;;;3.93;;
2976;SDS011;1498;51.500;7.440;2023-02-01T15:35:53;15.50;;;4.33;;
2976;SDS011;1498;51.500;7.440;2023-02-01T15:38:36;15.37;;;5.50;;
2976;SDS011;1498;51.500;7.440;2023-02-01T15:43:37;15.03;;;4.53;;
2976;SDS011;1498;51.500;7.440;2023-02-01T15:46:06;9.10;;;3.73;;
2976;SDS011;1498;51.500;7.440;2023-02-01T15:48:40;24.70;;;5.27;;
2976;SDS011;1498;51.500;7.440;2023-02-01T15:51:19;17.30;;;6.33;;
2976;SDS011;1498;51.500;7.440;2023-02-01T15:53:57;13.20;;;4.37;;
2976;SDS011;1498;51.500;7.440;2023-02-01T15:56:28;15.73;;;4.80;;
2976;SDS011;1498;51.500;7.440;2023-02-01T15:59:00;22.57;;;4.30;;
2976;SDS011;1498;51.500;7.440;2023-02-01T16:01:27;15.13;;;4.73;;
2976;SDS011;1498;51.500;7.440;2023-02-01T16:07:01;12.93;;;4.17;;
2976;SDS011;1498;51.500;7.440;2023-02-01T16:09:39;7.93;;;3.70;;
2976;SDS011;1498;51.500;7.440;2023-02-01T16:13:00;25.23;;;4.07;;
2976;SDS011;1498;51.500;7.440;2023-02-01T16:15:06;18.20;;;4.60;;
2976;SDS011;1498;51.500;7.440;2023-02-01T16:17:32;15.37;;;4.40;;
2976;SDS011;1498;51.500;7.440;2023-02-01T16:19:58;23.00;;;4.23;;
2976;SDS011;1498;51.500;7.440;2023-02-01T16:22:23;20.00;;;5.07;;
2976;SDS011;1498;51.500;7.440;2023-02-01T16:24:49;16.67;;;4.37;;
2976;SDS011;1498;51.500;7.440;2023-02-01T16:27:15;15.13;;;4.43;;
2976;SDS011;1498;51.500;7.440;2023-02-01T16:29:41;21.17;;;4.00;;
2976;SDS011;1498;51.500;7.440;2023-02-01T16:32:10;17.60;;;4.63;;
2976;SDS011;1498;51.500;7.440;2023-02-01T16:34:43;19.13;;;4.00;;
2976;SDS011;1498;51.500;7.440;2023-02-01T16:37:11;18.03;;;4.73;;
2976;SDS011;1498;51.500;7.440;2023-02-01T16:39:38;13.23;;;4.60;;
2976;SDS011;1498;51.500;7.440;2023-02-01T16:42:10;15.23;;;5.10;;
2976;SDS011;1498;51.500;7.440;2023-02-01T16:44:37;11.23;;;4.50;;
2976;SDS011;1498;51.500;7.440;2023-02-01T16:47:03;16.40;;;4.70;;
2976;SDS011;1498;51.500;7.440;2023-02-01T16:49:38;13.03;;;4.90;;
2976;SDS011;1498;51.500;7.440;2023-02-01T16:52:08;18.70;;;6.00;;
2976;SDS011;1498;51.500;7.440;2023-02-01T16:54:42;10.10;;;5.47;;
2976;SDS011;1498;51.500;7.440;2023-02-01T16:57:11;13.20;;;4.47;;
2976;SDS011;1498;51.500;7.440;2023-02-01T16:59:38;15.37;;;6.17;;
2976;SDS011;1498;51.500;7.440;2023-02-01T17:02:04;14.83;;;6.60;;
2976;SDS011;1498;51.500;7.440;2023-02-01T17:04:29;9.73;;;4.43;;
2976;SDS011;1498;51.500;7.440;2023-02-01T17:06:55;12.50;;;4.37;;
2976;SDS011;1498;51.500;7.440;2023-02-01T17:09:21;21.63;;;5.80;;
2976;SDS011;1498;51.500;7.440;2023-02-01T17:11:48;18.57;;;4.50;;
2976;SDS011;1498;51.500;7.440;2023-02-01T17:14:17;37.23;;;6.00;;
2976;SDS011;1498;51.500;7.440;2023-02-01T17:16:45;24.63;;;5.73;;
2976;SDS011;1498;51.500;7.440;2023-02-01T17:19:19;9.00;;;4.10;;
2976;SDS011;1498;51.500;7.440;2023-02-01T17:21:49;9.60;;;3.57;;
2976;SDS011;1498;51.500;7.440;2023-02-01T17:24:25;6.27;;;2.30;;
2976;SDS011;1498;51.500;7.440;2023-02-01T17:26:52;4.17;;;2.60;;
2976;SDS011;1498;51.500;7.440;2023-02-01T17:29:18;8.80;;;2.50;;
2976;SDS011;1498;51.500;7.440;2023-02-01T17:31:45;4.40;;;1.50;;
2976;SDS011;1498;51.500;7.440;2023-02-01T17:34:14;5.23;;;2.60;;
2976;SDS011;1498;51.500;7.440;2023-02-01T17:36:41;5.03;;;2.30;;
2976;SDS011;1498;51.500;7.440;2023-02-01T17:39:07;3.93;;;2.27;;
2976;SDS011;1498;51.500;7.440;2023-02-01T17:41:34;9.47;;;2.50;;
2976;SDS011;1498;51.500;7.440;2023-02-01T17:44:00;6.07;;;1.80;;
2976;SDS011;1498;51.500;7.440;2023-02-01T17:46:27;6.03;;;3.60;;
2976;SDS011;1498;51.500;7.440;2023-02-01T17:48:53;4.43;;;2.67;;
2976;SDS011;1498;51.500;7.440;2023-02-01T17:51:20;7.77;;;2.80;;
2976;SDS011;1498;51.500;7.440;2023-02-01T17:53:51;11.13;;;3.47;;
2976;SDS011;1498;51.500;7.440;2023-02-01T17:56:18;5.20;;;3.60;;
2976;SDS011;1498;51.500;7.440;2023-02-01T17:58:46;9.10;;;5.30;;
2976;SDS011;1498;51.500;7.440;2023-02-01T18:01:17;17.30;;;6.10;;
2976;SDS011;1498;51.500;7.440;2023-02-01T18:03:44;10.30;;;4.57;;
2976;SDS011;1498;51.500;7.440;2023-02-01T18:06:12;12.10;;;4.67;;
2976;SDS011;1498;51.500;7.440;2023-02-01T18:08:39;7.60;;;4.23;;
2976;SDS011;1498;51.500;7.440;2023-02-01T18:11:08;17.27;;;4.90;;
2976;SDS011;1498;51.500;7.440;2023-02-01T18:13:37;10.63;;;5.03;;
2976;SDS011;1498;51.500;7.440;2023-02-01T18:16:02;15.97;;;5.83;;
2976;SDS011;1498;51.500;7.440;2023-02-01T18:18:28;11.50;;;4.90;;
2976;SDS011;1498;51.500;7.440;2023-02-01T18:20:57;17.27;;;6.87;;
2976;SDS011;1498;51.500;7.440;2023-02-01T18:23:23;17.13;;;7.93;;
2976;SDS011;1498;51.500;7.440;2023-02-01T18:25:49;14.83;;;5.47;;
2976;SDS011;1498;51.500;7.440;2023-02-01T18:28:16;18.87;;;6.23;;
2976;SDS011;1498;51.500;7.440;2023-02-01T18:30:43;14.73;;;5.80;;
2976;SDS011;1498;51.500;7.440;2023-02-01T18:33:12;13.67;;;6.13;;
2976;SDS011;1498;51.500;7.440;2023-02-01T18:35:39;7.50;;;2.67;;
2976;SDS011;1498;51.500;7.440;2023-02-01T18:38:05;7.40;;;3.00;;
2976;SDS011;1498;51.500;7.440;2023-02-01T18:40:39;9.47;;;3.27;;
2976;SDS011;1498;51.500;7.440;2023-02-01T18:43:13;5.57;;;2.13;;
2976;SDS011;1498;51.500;7.440;2023-02-01T18:45:40;6.37;;;2.70;;
2976;SDS011;1498;51.500;7.440;2023-02-01T18:48:09;7.07;;;2.10;;
2976;SDS011;1498;51.500;7.440;2023-02-01T18:50:37;6.60;;;1.83;;
2976;SDS011;1498;51.500;7.440;2023-02-01T18:53:05;3.80;;;1.97;;
2976;SDS011;1498;51.500;7.440;2023-02-01T18:55:32;4.20;;;1.70;;
2976;SDS011;1498;51.500;7.440;2023-02-01T18:57:58;3.20;;;1.87;;
2976;SDS011;1498;51.500;7.440;2023-02-01T19:00:25;7.27;;;2.20;;
2976;SDS011;1498;51.500;7.440;2023-02-01T19:02:51;4.70;;;1.50;;
2976;SDS011;1498;51.500;7.440;2023-02-01T19:05:17;4.00;;;1.67;;
2976;SDS011;1498;51.500;7.440;2023-02-01T19:07:43;3.57;;;1.70;;
2976;SDS011;1498;51.500;7.440;2023-02-01T19:10:11;9.10;;;2.90;;
2976;SDS011;1498;51.500;7.440;2023-02-01T19:12:39;3.33;;;2.03;;
2976;SDS011;1498;51.500;7.440;2023-02-01T19:15:06;3.53;;;1.83;;
2976;SDS011;1498;51.500;7.440;2023-02-01T19:17:33;4.07;;;2.37;;
2976;SDS011;1498;51.500;7.440;2023-02-01T19:19:58;8.20;;;2.60;;
2976;SDS011;1498;51.500;7.440;2023-02-01T19:22:24;5.70;;;2.50;;
2976;SDS011;1498;51.500;7.440;2023-02-01T19:24:50;5.40;;;2.23;;
2976;SDS011;1498;51.500;7.440;2023-02-01T19:27:16;9.87;;;2.93;;
2976;SDS011;1498;51.500;7.440;2023-02-01T19:29:42;14.33;;;4.03;;
2976;SDS011;1498;51.500;7.440;2023-02-01T19:32:10;4.83;;;2.73;;
2976;SDS011;1498;51.500;7.440;2023-02-01T19:34:36;4.60;;;3.37;;